Terminal Aerodrome Forecast
Issued by NWS

Current Version | Previous Version | Text Only | Print | Product List | Glossary On
Versions: 1 2 3 4 5 6 7 8 9 10 11 12 13 14 15 16 17 18 19 20 21 22 23 24 25 26 27 28 29 30 31 32 33 34
000
FTUS46 KLOX 161700
TAFLAX
TAF
KLAX 161738Z 1618/1724 14005KT P6SM SCT020
     FM161900 26010KT P6SM SCT020
     FM170300 26005KT 5SM BR BKN010
     FM170800 VRB03KT P6SM OVC015
     FM171500 14004KT P6SM OVC020
     FM171800 26006KT P6SM SCT025
     FM172000 26012KT P6SM SCT025=

USA.gov is the U.S. government's official web portal to all federal, state and local government web resources and services.